Crystal Lakes, Missouri
Current Conditions -  °F | °C
As of 1:15 PM on Saturday 25 Oct 2014 (Local Time) from KGPH Reporting Station
Clear Clear  
Wind Chill: 75°   Ceiling: Unl
Heat Index: 75°   Visibility: 10mi
Dew Point: 52°   Wind: 0mph
Humidity: 44%   Direction: NA
Pressure: 30.06"   Gusts: NA
Location:  39.3039°N, 94.2206°W
Report Text: KGPH 251815Z AUTO 00000KT 10SM CLR 24/11 A3006 RMK AO2
Loading
Personal Weather Stations






























Interactive Weather Map
Tropical Storm Tracking
New forecast layout! Learn more

10-Day Weather Forecast

Advertisements
Track Severe Weather on mobile